createdAt,value
2022-08-26T00:00:32.851Z,51.325729
2022-08-26T00:01:32.830Z,51.325726
2022-08-26T00:02:32.998Z,51.325726
2022-08-26T00:03:32.782Z,51.325706
2022-08-26T00:04:33.813Z,51.325729
2022-08-26T00:05:32.775Z,51.325737
2022-08-26T00:06:32.741Z,51.325714
2022-08-26T00:07:32.743Z,51.325699
2022-08-26T00:08:32.713Z,51.325710
2022-08-26T00:09:32.736Z,51.325714
2022-08-26T00:10:32.704Z,51.325684
2022-08-26T00:11:32.673Z,51.325703
2022-08-26T00:12:37.584Z,51.325726
2022-08-26T00:13:33.636Z,51.325748
2022-08-26T00:14:32.681Z,51.325729
2022-08-26T00:15:32.595Z,51.325710
2022-08-26T00:16:32.710Z,51.325726
2022-08-26T00:17:32.564Z,51.325726
2022-08-26T00:18:38.849Z,51.325726
2022-08-26T00:19:33.577Z,51.325718
2022-08-26T00:20:32.521Z,51.325745
2022-08-26T00:21:32.530Z,51.325718
2022-08-26T00:22:32.490Z,51.325718
2022-08-26T00:23:32.474Z,51.325714
2022-08-26T00:24:32.496Z,51.325741
2022-08-26T00:25:32.449Z,51.325706
2022-08-26T00:26:32.417Z,51.325706
2022-08-26T00:27:32.410Z,51.325729
2022-08-26T00:28:32.380Z,51.325703
2022-08-26T00:29:32.401Z,51.325726
2022-08-26T00:30:33.353Z,51.325722
2022-08-26T00:32:04.783Z,51.325760
2022-08-26T00:32:32.323Z,51.325771
2022-08-26T00:33:32.308Z,51.325752
2022-08-26T00:34:32.313Z,51.325779
2022-08-26T00:35:32.270Z,51.325790
2022-08-26T00:36:32.260Z,51.325756
2022-08-26T00:37:32.244Z,51.325729
2022-08-26T00:38:32.219Z,51.325699
2022-08-26T00:39:32.245Z,51.325733
2022-08-26T00:40:32.244Z,51.325722
2022-08-26T00:41:32.170Z,51.325722
2022-08-26T00:42:32.161Z,51.325756
2022-08-26T00:43:32.137Z,51.325764
2022-08-26T00:44:33.167Z,51.325745
2022-08-26T00:45:32.139Z,51.325733
2022-08-26T00:46:32.091Z,51.325748
2022-08-26T00:47:32.080Z,51.325729
2022-08-26T00:48:32.066Z,51.325729
2022-08-26T00:49:32.114Z,51.325737
2022-08-26T00:50:32.022Z,51.325703
2022-08-26T00:51:32.016Z,51.325737
2022-08-26T00:52:31.993Z,51.325729
2022-08-26T00:53:31.992Z,51.325752
2022-08-26T00:54:31.956Z,51.325752
2022-08-26T00:55:37.737Z,51.325741
2022-08-26T00:56:32.974Z,51.325733
2022-08-26T00:57:31.934Z,51.325714
2022-08-26T00:58:31.895Z,51.325748
2022-08-26T00:59:32.732Z,51.325748
2022-08-26T01:00:31.894Z,51.325729
2022-08-26T01:01:31.939Z,51.325737
2022-08-26T01:02:31.860Z,51.325756
2022-08-26T01:03:31.813Z,51.325745
2022-08-26T01:04:31.810Z,51.325726
2022-08-26T01:05:31.827Z,51.325752
2022-08-26T01:06:31.788Z,51.325760
2022-08-26T01:07:31.744Z,51.325768
2022-08-26T01:08:31.734Z,51.325752
2022-08-26T01:09:31.703Z,51.325745
2022-08-26T01:10:31.735Z,51.325733
2022-08-26T01:11:31.671Z,51.325706
2022-08-26T01:12:31.663Z,51.325718
2022-08-26T01:13:31.641Z,51.325741
2022-08-26T01:14:31.627Z,51.325703
2022-08-26T01:15:32.958Z,51.325687
2022-08-26T01:16:31.701Z,51.325737
2022-08-26T01:17:31.594Z,51.325798
2022-08-26T01:18:31.571Z,51.325775
2022-08-26T01:19:31.557Z,51.325729
2022-08-26T01:20:31.571Z,51.325741
2022-08-26T01:21:31.520Z,51.325764
2022-08-26T01:22:31.510Z,51.325752
2022-08-26T01:23:31.475Z,51.325756
2022-08-26T01:24:31.461Z,51.325714
2022-08-26T01:25:31.496Z,51.325714
2022-08-26T01:26:31.449Z,51.325741
2022-08-26T01:27:32.684Z,51.325726
2022-08-26T01:28:31.409Z,51.325726
2022-08-26T01:29:31.387Z,51.325733
2022-08-26T01:30:31.402Z,51.325748
2022-08-26T01:31:31.412Z,51.325783
2022-08-26T01:32:31.345Z,51.325771
2022-08-26T01:33:31.319Z,51.325737
2022-08-26T01:34:32.305Z,51.325737
2022-08-26T01:35:31.387Z,51.325741
2022-08-26T01:36:31.298Z,51.325729
2022-08-26T01:37:31.258Z,51.325710
2022-08-26T01:38:31.652Z,51.325718
2022-08-26T01:39:31.235Z,51.325745
2022-08-26T01:40:31.278Z,51.325756
2022-08-26T01:41:31.205Z,51.325768
2022-08-26T01:42:31.166Z,51.325764
2022-08-26T01:43:31.158Z,51.325768
2022-08-26T01:44:31.184Z,51.325798
2022-08-26T01:45:31.236Z,51.325798
2022-08-26T01:46:31.118Z,51.325714
2022-08-26T01:47:31.091Z,51.325657
2022-08-26T01:48:31.095Z,51.325745
2022-08-26T01:49:31.994Z,51.325737
2022-08-26T01:50:31.071Z,51.325745
2022-08-26T01:51:31.028Z,51.325771
2022-08-26T01:52:31.026Z,51.325733
2022-08-26T01:53:31.004Z,51.325741
2022-08-26T01:54:30.977Z,51.325809
2022-08-26T01:55:33.478Z,51.325790
2022-08-26T01:56:33.249Z,51.325798
2022-08-26T01:57:31.944Z,51.325779
2022-08-26T01:58:30.939Z,51.325790
2022-08-26T01:59:30.911Z,51.325775
2022-08-26T02:00:30.919Z,51.325768
2022-08-26T02:01:30.875Z,51.325806
2022-08-26T02:02:30.847Z,51.325775
2022-08-26T02:03:30.842Z,51.325768
2022-08-26T02:04:30.869Z,51.325798
2022-08-26T02:05:30.830Z,51.325710
2022-08-26T02:06:30.779Z,51.325710
2022-08-26T02:07:30.789Z,51.325691
2022-08-26T02:08:30.743Z,51.325710
2022-08-26T02:09:30.810Z,51.325718
2022-08-26T02:10:30.739Z,51.325756
2022-08-26T02:11:30.702Z,51.325752
2022-08-26T02:12:30.712Z,51.325752
2022-08-26T02:13:30.658Z,51.325748
2022-08-26T02:14:30.654Z,51.325672
2022-08-26T02:15:30.663Z,51.325718
2022-08-26T02:16:30.670Z,51.325687
2022-08-26T02:17:30.582Z,51.325695
2022-08-26T02:18:30.582Z,51.325706
2022-08-26T02:19:30.559Z,51.325718
2022-08-26T02:20:30.574Z,51.325706
2022-08-26T02:21:30.526Z,51.325817
2022-08-26T02:22:30.506Z,51.325798
2022-08-26T02:23:30.493Z,51.325802
2022-08-26T02:24:30.474Z,51.325779
2022-08-26T02:25:30.485Z,51.325817
2022-08-26T02:26:30.442Z,51.325798
2022-08-26T02:27:32.049Z,51.325768
2022-08-26T02:28:30.410Z,51.325771
2022-08-26T02:29:30.399Z,51.325768
2022-08-26T02:30:30.418Z,51.325764
2022-08-26T02:31:30.421Z,51.325737
2022-08-26T02:32:30.341Z,51.325741
2022-08-26T02:33:30.337Z,51.325745
2022-08-26T02:34:31.116Z,51.325745
2022-08-26T02:35:30.317Z,51.325764
2022-08-26T02:36:30.282Z,51.325748
2022-08-26T02:37:30.252Z,51.325764
2022-08-26T02:38:30.249Z,51.325756
2022-08-26T02:39:30.225Z,51.325756
2022-08-26T02:40:30.271Z,51.325783
2022-08-26T02:41:30.193Z,51.325764
2022-08-26T02:42:30.181Z,51.325756
2022-08-26T02:43:32.869Z,51.325726
2022-08-26T02:44:30.153Z,51.325741
2022-08-26T02:45:30.161Z,51.325726
2022-08-26T02:46:30.250Z,51.325741
2022-08-26T02:47:30.112Z,51.325760
2022-08-26T02:48:30.077Z,51.325779
2022-08-26T02:49:30.076Z,51.325752
2022-08-26T02:50:30.092Z,51.325752
2022-08-26T02:51:30.038Z,51.325748
2022-08-26T02:52:30.001Z,51.325756
2022-08-26T02:53:31.858Z,51.325790
2022-08-26T02:54:29.985Z,51.325748
2022-08-26T02:55:29.994Z,51.325760
2022-08-26T02:56:29.938Z,51.325752
2022-08-26T02:57:29.936Z,51.325760
2022-08-26T02:58:29.905Z,51.325737
2022-08-26T02:59:29.910Z,51.325779
2022-08-26T03:00:29.945Z,51.325733
2022-08-26T03:01:29.956Z,51.325733
2022-08-26T03:02:29.848Z,51.325722
2022-08-26T03:03:29.818Z,51.325741
2022-08-26T03:04:29.826Z,51.325775
2022-08-26T03:05:29.838Z,51.325733
2022-08-26T03:06:29.781Z,51.325764
2022-08-26T03:07:29.761Z,51.325748
2022-08-26T03:08:29.744Z,51.325756
2022-08-26T03:09:29.723Z,51.325752
2022-08-26T03:10:29.744Z,51.325737
2022-08-26T03:11:33.003Z,51.325733
2022-08-26T03:12:30.675Z,51.325710
2022-08-26T03:13:29.685Z,51.325722
2022-08-26T03:14:29.679Z,51.325741
2022-08-26T03:15:29.656Z,51.325729
2022-08-26T03:16:32.471Z,51.325748
2022-08-26T03:17:29.612Z,51.325752
2022-08-26T03:18:29.591Z,51.325748
2022-08-26T03:19:29.582Z,51.325741
2022-08-26T03:20:29.597Z,51.325706
2022-08-26T03:21:29.551Z,51.325726
2022-08-26T03:22:29.517Z,51.325706
2022-08-26T03:23:29.498Z,51.325714
2022-08-26T03:24:29.475Z,51.325741
2022-08-26T03:25:29.486Z,51.325741
2022-08-26T03:26:29.437Z,51.325752
2022-08-26T03:27:29.472Z,51.325733
2022-08-26T03:28:29.423Z,51.325733
2022-08-26T03:29:29.402Z,51.325745
2022-08-26T03:30:29.409Z,51.325745
2022-08-26T03:31:29.450Z,51.325798
2022-08-26T03:32:29.361Z,51.325756
2022-08-26T03:33:29.330Z,51.325729
2022-08-26T03:34:29.375Z,51.325787
2022-08-26T03:35:29.327Z,51.325790
2022-08-26T03:36:29.302Z,51.325775
2022-08-26T03:37:29.254Z,51.325783
2022-08-26T03:38:29.248Z,51.325817
2022-08-26T03:39:31.459Z,51.325787
2022-08-26T03:40:29.306Z,51.325760
2022-08-26T03:41:29.204Z,51.325752
2022-08-26T03:42:29.171Z,51.325748
2022-08-26T03:43:29.173Z,51.325733
2022-08-26T03:44:29.141Z,51.325710
2022-08-26T03:45:29.155Z,51.325779
2022-08-26T03:46:29.169Z,51.325840
2022-08-26T03:47:29.103Z,51.325779
2022-08-26T03:48:29.077Z,51.325764
2022-08-26T03:49:29.095Z,51.325779
2022-08-26T03:50:29.073Z,51.325768
2022-08-26T03:51:29.034Z,51.325756
2022-08-26T03:52:29.006Z,51.325752
2022-08-26T03:53:28.997Z,51.325760
2022-08-26T03:54:28.970Z,51.325733
2022-08-26T03:55:29.001Z,51.325729
2022-08-26T03:56:28.956Z,51.325748
2022-08-26T03:57:28.913Z,51.325729
2022-08-26T03:58:29.906Z,51.325737
2022-08-26T03:59:28.890Z,51.325748
2022-08-26T04:00:28.911Z,51.325779
2022-08-26T04:01:28.891Z,51.325756
2022-08-26T04:02:28.867Z,51.325706
2022-08-26T04:03:28.886Z,51.325699
2022-08-26T04:04:28.814Z,51.325790
2022-08-26T04:05:28.821Z,51.325741
2022-08-26T04:06:28.784Z,51.325756
2022-08-26T04:07:28.773Z,51.325775
2022-08-26T04:08:28.742Z,51.325771
2022-08-26T04:09:28.721Z,51.325737
2022-08-26T04:10:29.537Z,51.325752
2022-08-26T04:11:28.704Z,51.325752
2022-08-26T04:12:28.676Z,51.325729
2022-08-26T04:13:28.668Z,51.325745
2022-08-26T04:14:28.647Z,51.325741
2022-08-26T04:15:28.673Z,51.325741
2022-08-26T04:16:28.648Z,51.325710
2022-08-26T04:17:28.605Z,51.325741
2022-08-26T04:18:33.014Z,51.325710
2022-08-26T04:19:30.568Z,51.325748
2022-08-26T04:20:28.583Z,51.325745
2022-08-26T04:21:28.527Z,51.325722
2022-08-26T04:22:28.532Z,51.325733
2022-08-26T04:23:28.493Z,51.325726
2022-08-26T04:24:28.594Z,51.325748
2022-08-26T04:25:28.495Z,51.325756
2022-08-26T04:26:28.446Z,51.325779
2022-08-26T04:27:28.413Z,51.325775
2022-08-26T04:28:28.406Z,51.325756
2022-08-26T04:29:28.422Z,51.325710
2022-08-26T04:30:28.393Z,51.325764
2022-08-26T04:31:28.415Z,51.325756
2022-08-26T04:32:28.341Z,51.325745
2022-08-26T04:33:33.200Z,51.325737
2022-08-26T04:34:29.320Z,51.325748
2022-08-26T04:35:28.323Z,51.325752
2022-08-26T04:36:28.269Z,51.325737
2022-08-26T04:37:28.245Z,51.325752
2022-08-26T04:38:28.227Z,51.325756
2022-08-26T04:39:28.236Z,51.325771
2022-08-26T04:40:28.268Z,51.325745
2022-08-26T04:41:28.194Z,51.325733
2022-08-26T04:42:28.166Z,51.325737
2022-08-26T04:43:28.162Z,51.325748
2022-08-26T04:44:28.189Z,51.325748
2022-08-26T04:45:28.146Z,51.325748
2022-08-26T04:46:28.146Z,51.325737
2022-08-26T04:47:31.766Z,51.325775
2022-08-26T04:48:29.070Z,51.325764
2022-08-26T04:49:28.050Z,51.325748
2022-08-26T04:50:29.065Z,51.325752
2022-08-26T04:51:28.281Z,51.325733
2022-08-26T04:52:28.044Z,51.325737
2022-08-26T04:53:28.000Z,51.325722
2022-08-26T04:54:27.976Z,51.325745
2022-08-26T04:55:38.220Z,51.325760
2022-08-26T04:56:28.983Z,51.325718
2022-08-26T04:57:27.914Z,51.325703
2022-08-26T04:58:27.896Z,51.325729
2022-08-26T04:59:27.871Z,51.325745
2022-08-26T05:00:27.898Z,51.325756
2022-08-26T05:01:27.871Z,51.325745
2022-08-26T05:02:27.901Z,51.325722
2022-08-26T05:03:30.569Z,51.325695
2022-08-26T05:04:27.860Z,51.325706
2022-08-26T05:05:27.772Z,51.325745
2022-08-26T05:06:27.782Z,51.325764
2022-08-26T05:07:28.747Z,51.325764
2022-08-26T05:08:27.727Z,51.325783
2022-08-26T05:09:27.704Z,51.325775
2022-08-26T05:10:28.712Z,51.325729
2022-08-26T05:11:27.718Z,51.325710
2022-08-26T05:12:27.663Z,51.325710
2022-08-26T05:13:27.707Z,51.325718
2022-08-26T05:14:27.736Z,51.325722
2022-08-26T05:15:27.626Z,51.325706
2022-08-26T05:16:27.739Z,51.325722
2022-08-26T05:17:27.620Z,51.325710
2022-08-26T05:18:27.577Z,51.325706
2022-08-26T05:19:27.955Z,51.325726
2022-08-26T05:20:27.524Z,51.325714
2022-08-26T05:21:27.553Z,51.325729
2022-08-26T05:22:27.516Z,51.325726
2022-08-26T05:23:27.475Z,51.325733
2022-08-26T05:24:27.499Z,51.325741
2022-08-26T05:25:27.523Z,51.325722
2022-08-26T05:26:27.459Z,51.325733
2022-08-26T05:27:27.404Z,51.325737
2022-08-26T05:28:27.435Z,51.325741
2022-08-26T05:29:27.383Z,51.325745
2022-08-26T05:30:27.375Z,51.325764
2022-08-26T05:31:27.426Z,51.325779
2022-08-26T05:32:27.324Z,51.325771
2022-08-26T05:33:27.318Z,51.325756
2022-08-26T05:34:30.245Z,51.325760
2022-08-26T05:35:27.358Z,51.325790
2022-08-26T05:36:27.304Z,51.325756
2022-08-26T05:37:27.256Z,51.325813
2022-08-26T05:38:30.335Z,51.325806
2022-08-26T05:39:27.221Z,51.325764
2022-08-26T05:40:27.283Z,51.325714
2022-08-26T05:41:27.210Z,51.325741
2022-08-26T05:42:28.161Z,51.325752
2022-08-26T05:43:27.197Z,51.325756
2022-08-26T05:44:27.740Z,51.325726
2022-08-26T05:45:27.126Z,51.325706
2022-08-26T05:46:27.327Z,51.325703
2022-08-26T05:47:27.129Z,51.325680
2022-08-26T05:48:27.099Z,51.325710
2022-08-26T05:49:27.090Z,51.325726
2022-08-26T05:50:27.045Z,51.325745
2022-08-26T05:51:27.057Z,51.325760
2022-08-26T05:52:27.001Z,51.325748
2022-08-26T05:53:27.011Z,51.325783
2022-08-26T05:54:27.082Z,51.325764
2022-08-26T05:55:26.992Z,51.325787
2022-08-26T05:56:27.080Z,51.325863
2022-08-26T05:57:26.956Z,51.325787
2022-08-26T05:58:26.903Z,51.325729
2022-08-26T05:59:26.896Z,51.325726
2022-08-26T06:00:26.883Z,51.325703
2022-08-26T06:01:26.948Z,51.325684
2022-08-26T06:02:26.921Z,51.325710
2022-08-26T06:03:26.820Z,51.325756
2022-08-26T06:04:28.319Z,51.325760
2022-08-26T06:05:26.835Z,51.325794
2022-08-26T06:06:27.445Z,51.325798
2022-08-26T06:07:26.755Z,51.325779
2022-08-26T06:08:26.779Z,51.325706
2022-08-26T06:09:26.741Z,51.325764
2022-08-26T06:10:32.471Z,51.325741
2022-08-26T06:11:28.724Z,51.325729
2022-08-26T06:12:26.682Z,51.325729
2022-08-26T06:13:26.692Z,51.325737
2022-08-26T06:14:26.685Z,51.325752
2022-08-26T06:15:26.790Z,51.325733
2022-08-26T06:16:26.704Z,51.325710
2022-08-26T06:17:26.614Z,51.325684
2022-08-26T06:18:26.588Z,51.325726
2022-08-26T06:19:32.962Z,51.325741
2022-08-26T06:20:27.557Z,51.325771
2022-08-26T06:21:26.585Z,51.325798
2022-08-26T06:22:26.537Z,51.325817
2022-08-26T06:23:26.540Z,51.325745
2022-08-26T06:24:27.266Z,51.325752
2022-08-26T06:25:26.504Z,51.325764
2022-08-26T06:26:26.539Z,51.325771
2022-08-26T06:27:30.668Z,51.325745
2022-08-26T06:28:28.434Z,51.325756
2022-08-26T06:29:26.457Z,51.325722
2022-08-26T06:30:26.437Z,51.325748
2022-08-26T06:31:26.446Z,51.325760
2022-08-26T06:32:26.399Z,51.325737
2022-08-26T06:33:26.390Z,51.325718
2022-08-26T06:34:29.667Z,51.325729
2022-08-26T06:35:26.328Z,51.325748
2022-08-26T06:36:26.353Z,51.325760
2022-08-26T06:37:26.300Z,51.325768
2022-08-26T06:38:26.295Z,51.325771
2022-08-26T06:39:26.266Z,51.325794
2022-08-26T06:40:26.405Z,51.325775
2022-08-26T06:41:26.339Z,51.325806
2022-08-26T06:42:26.239Z,51.325798
2022-08-26T06:43:26.208Z,51.325794
2022-08-26T06:44:26.388Z,51.325752
2022-08-26T06:45:26.403Z,51.325748
2022-08-26T06:46:26.261Z,51.325768
2022-08-26T06:47:26.130Z,51.325806
2022-08-26T06:48:26.131Z,51.325714
2022-08-26T06:49:27.353Z,51.325760
2022-08-26T06:50:26.093Z,51.325706
2022-08-26T06:51:26.121Z,51.325726
2022-08-26T06:52:26.084Z,51.325752
2022-08-26T06:53:26.055Z,51.325706
2022-08-26T06:54:26.025Z,51.325787
2022-08-26T06:55:26.877Z,51.325783
2022-08-26T06:56:26.028Z,51.325813
2022-08-26T06:57:25.985Z,51.325779
2022-08-26T06:58:26.924Z,51.325802
2022-08-26T06:59:25.966Z,51.325779
2022-08-26T07:00:25.953Z,51.325756
2022-08-26T07:01:26.028Z,51.325745
2022-08-26T07:02:28.586Z,51.325752
2022-08-26T07:03:26.028Z,51.325733
2022-08-26T07:04:27.798Z,51.325733
2022-08-26T07:05:25.873Z,51.325741
2022-08-26T07:06:25.900Z,51.325829
2022-08-26T07:07:25.838Z,51.325748
2022-08-26T07:08:25.839Z,51.325737
2022-08-26T07:09:25.912Z,51.325729
2022-08-26T07:10:25.829Z,51.325741
2022-08-26T07:11:25.815Z,51.325714
2022-08-26T07:12:25.769Z,51.325726
2022-08-26T07:13:30.497Z,51.325787
2022-08-26T07:14:26.811Z,51.325809
2022-08-26T07:15:27.143Z,51.325790
2022-08-26T07:16:26.843Z,51.325775
2022-08-26T07:17:25.700Z,51.325726
2022-08-26T07:18:25.695Z,51.325748
2022-08-26T07:19:30.641Z,51.325790
2022-08-26T07:20:26.705Z,51.325817
2022-08-26T07:21:25.672Z,51.325787
2022-08-26T07:22:25.628Z,51.325768
2022-08-26T07:23:25.607Z,51.325687
2022-08-26T07:24:28.537Z,51.325684
2022-08-26T07:25:25.631Z,51.325665
2022-08-26T07:26:25.604Z,51.325699
2022-08-26T07:27:25.562Z,51.325771
2022-08-26T07:28:25.532Z,51.325752
2022-08-26T07:29:25.599Z,51.325714
2022-08-26T07:30:25.507Z,51.325729
2022-08-26T07:31:25.541Z,51.325703
2022-08-26T07:32:25.493Z,51.325741
2022-08-26T07:33:25.523Z,51.325768
2022-08-26T07:34:25.471Z,51.325764
2022-08-26T07:35:25.449Z,51.325775
2022-08-26T07:36:25.481Z,51.325771
2022-08-26T07:37:25.447Z,51.325783
2022-08-26T07:38:25.399Z,51.325756
2022-08-26T07:39:25.383Z,51.325775
2022-08-26T07:40:25.384Z,51.325779
2022-08-26T07:41:25.456Z,51.325748
2022-08-26T07:42:25.341Z,51.325779
2022-08-26T07:43:25.317Z,51.325752
2022-08-26T07:44:25.368Z,51.325760
2022-08-26T07:45:25.292Z,51.325752
2022-08-26T07:46:27.466Z,51.325745
2022-08-26T07:47:26.459Z,51.325748
2022-08-26T07:48:25.256Z,51.325745
2022-08-26T07:49:25.330Z,51.325722
2022-08-26T07:50:49.174Z,51.325733
2022-08-26T07:51:26.240Z,51.325714
2022-08-26T07:52:26.942Z,51.325741
2022-08-26T07:53:26.186Z,51.325752
2022-08-26T07:54:27.065Z,51.325726
2022-08-26T07:55:25.226Z,51.325695
2022-08-26T07:56:25.178Z,51.325695
2022-08-26T07:57:25.122Z,51.325703
2022-08-26T07:58:25.196Z,51.325722
2022-08-26T07:59:25.092Z,51.325710
2022-08-26T08:00:25.084Z,51.325729
2022-08-26T08:01:25.174Z,51.325737
2022-08-26T08:02:25.047Z,51.325733
2022-08-26T08:03:25.053Z,51.325741
2022-08-26T08:04:26.610Z,51.325726
2022-08-26T08:05:27.294Z,51.325741
2022-08-26T08:06:27.376Z,51.325764
2022-08-26T08:07:38.619Z,51.325733
2022-08-26T08:08:26.942Z,51.325741
2022-08-26T08:09:25.112Z,51.325726
2022-08-26T08:10:25.191Z,51.325733
2022-08-26T08:11:24.958Z,51.325737
2022-08-26T08:12:24.987Z,51.325714
2022-08-26T08:13:24.961Z,51.325729
2022-08-26T08:14:25.088Z,51.325733
2022-08-26T08:15:24.911Z,51.325768
2022-08-26T08:16:24.941Z,51.325722
2022-08-26T08:17:24.909Z,51.325745
2022-08-26T08:18:24.843Z,51.325729
2022-08-26T08:19:36.564Z,51.325737
2022-08-26T08:20:25.892Z,51.325729
2022-08-26T08:21:24.818Z,51.325748
2022-08-26T08:22:25.845Z,51.325718
2022-08-26T08:23:24.785Z,51.325733
2022-08-26T08:24:24.875Z,51.325775
2022-08-26T08:25:24.759Z,51.325756
2022-08-26T08:26:24.773Z,51.325748
2022-08-26T08:27:24.730Z,51.325752
2022-08-26T08:28:24.756Z,51.325748
2022-08-26T08:29:24.755Z,51.325748
2022-08-26T08:30:24.688Z,51.325733
2022-08-26T08:31:52.143Z,51.325771
2022-08-26T08:32:26.752Z,51.325737
2022-08-26T08:33:24.656Z,51.325764
2022-08-26T08:34:24.678Z,51.325741
2022-08-26T08:35:24.622Z,51.325775
2022-08-26T08:36:24.725Z,51.325764
2022-08-26T08:37:24.668Z,51.325768
2022-08-26T08:38:24.587Z,51.325764
2022-08-26T08:39:24.587Z,51.325794
2022-08-26T08:40:24.605Z,51.325825
2022-08-26T08:41:24.572Z,51.325840
2022-08-26T08:42:24.576Z,51.325794
2022-08-26T08:43:24.526Z,51.325840
2022-08-26T08:45:25.506Z,51.325798
2022-08-26T08:46:24.579Z,51.325787
2022-08-26T08:47:24.544Z,51.325787
2022-08-26T08:48:27.826Z,51.325748
2022-08-26T08:49:24.445Z,51.325722
2022-08-26T08:50:24.430Z,51.325718
2022-08-26T08:51:24.463Z,51.325726
2022-08-26T08:52:24.412Z,51.325752
2022-08-26T08:53:24.437Z,51.325680
2022-08-26T08:54:24.482Z,51.325687
2022-08-26T08:55:24.392Z,51.325695
2022-08-26T08:56:24.404Z,51.325645
2022-08-26T08:57:24.342Z,51.325661
2022-08-26T08:58:24.329Z,51.325649
2022-08-26T08:59:24.325Z,51.325581
2022-08-26T09:00:30.153Z,51.325619
2022-08-26T09:01:25.371Z,51.325577
2022-08-26T09:02:24.312Z,51.325718
2022-08-26T09:03:24.265Z,51.325741
2022-08-26T09:04:24.243Z,51.325798
2022-08-26T09:05:24.220Z,51.325798
2022-08-26T09:06:24.242Z,51.325752
2022-08-26T09:07:24.205Z,51.325737
2022-08-26T09:08:24.191Z,51.325722
2022-08-26T09:09:24.169Z,51.325729
2022-08-26T09:10:24.174Z,51.325623
2022-08-26T09:11:24.237Z,51.325626
2022-08-26T09:12:29.294Z,51.325645
2022-08-26T09:13:26.219Z,51.325634
2022-08-26T09:14:24.134Z,51.325710
2022-08-26T09:15:25.475Z,51.325680
2022-08-26T09:16:25.183Z,51.325714
2022-08-26T09:17:24.069Z,51.325687
2022-08-26T09:18:24.050Z,51.325676
2022-08-26T09:19:24.049Z,51.325630
2022-08-26T09:20:24.020Z,51.325665
2022-08-26T09:21:24.022Z,51.325710
2022-08-26T09:23:25.168Z,51.325718
2022-08-26T09:24:24.024Z,51.325703
2022-08-26T09:25:23.957Z,51.325737
2022-08-26T09:26:26.001Z,51.325760
2022-08-26T09:27:24.964Z,51.325745
2022-08-26T09:28:23.978Z,51.325733
2022-08-26T09:29:24.040Z,51.325752
2022-08-26T09:30:23.996Z,51.325756
2022-08-26T09:31:23.971Z,51.325794
2022-08-26T09:32:23.907Z,51.325829
2022-08-26T09:33:23.856Z,51.325790
2022-08-26T09:34:23.895Z,51.325737
2022-08-26T09:35:23.837Z,51.325752
2022-08-26T09:36:24.736Z,51.325760
2022-08-26T09:37:24.021Z,51.325718
2022-08-26T09:38:23.785Z,51.325714
2022-08-26T09:39:23.776Z,51.325752
2022-08-26T09:40:23.830Z,51.325771
2022-08-26T09:41:23.757Z,51.325756
2022-08-26T09:42:23.807Z,51.325756
2022-08-26T09:43:23.739Z,51.325771
2022-08-26T09:44:24.320Z,51.325775
2022-08-26T09:45:23.713Z,51.325813
2022-08-26T09:46:23.783Z,51.325829
2022-08-26T09:47:23.711Z,51.325798
2022-08-26T09:48:23.692Z,51.325695
2022-08-26T09:49:23.652Z,51.325668
2022-08-26T09:50:23.645Z,51.325787
2022-08-26T09:51:24.646Z,51.325806
2022-08-26T09:52:23.739Z,51.325832
2022-08-26T09:53:25.183Z,51.325798
2022-08-26T09:54:24.625Z,51.325790
2022-08-26T09:55:24.577Z,51.325779
2022-08-26T09:56:23.600Z,51.325726
2022-08-26T09:57:23.560Z,51.325790
2022-08-26T09:58:23.558Z,51.325768
2022-08-26T09:59:23.569Z,51.325836
2022-08-26T10:00:23.517Z,51.325844
2022-08-26T10:01:23.587Z,51.325752
2022-08-26T10:02:23.481Z,51.325783
2022-08-26T10:03:23.475Z,51.325806
2022-08-26T10:04:23.572Z,51.325802
2022-08-26T10:05:23.467Z,51.325798
2022-08-26T10:06:23.492Z,51.325783
2022-08-26T10:07:23.419Z,51.325787
2022-08-26T10:08:23.422Z,51.325787
2022-08-26T10:09:23.405Z,51.325779
2022-08-26T10:10:23.397Z,51.325787
2022-08-26T10:11:23.404Z,51.325802
2022-08-26T10:12:23.490Z,51.325825
2022-08-26T10:13:23.361Z,51.325783
2022-08-26T10:14:23.350Z,51.325798
2022-08-26T10:15:23.320Z,51.325775
2022-08-26T10:16:23.390Z,51.325771
2022-08-26T10:17:23.284Z,51.325779
2022-08-26T10:18:23.293Z,51.325768
2022-08-26T10:19:23.276Z,51.325760
2022-08-26T10:20:24.101Z,51.325745
2022-08-26T10:21:23.337Z,51.325745
2022-08-26T10:22:23.235Z,51.325741
2022-08-26T10:23:23.393Z,51.325748
2022-08-26T10:24:23.241Z,51.325745
2022-08-26T10:25:23.209Z,51.325729
2022-08-26T10:26:23.234Z,51.325752
2022-08-26T10:27:23.169Z,51.325737
2022-08-26T10:28:23.189Z,51.325779
2022-08-26T10:29:23.154Z,51.325764
2022-08-26T10:30:23.153Z,51.325760
2022-08-26T10:31:23.163Z,51.325771
2022-08-26T10:32:23.216Z,51.325752
2022-08-26T10:33:23.101Z,51.325775
2022-08-26T10:34:23.139Z,51.325726
2022-08-26T10:35:23.069Z,51.325729
2022-08-26T10:36:23.094Z,51.325714
2022-08-26T10:37:23.099Z,51.325729
2022-08-26T10:38:23.027Z,51.325768
2022-08-26T10:39:23.025Z,51.325771
2022-08-26T10:40:23.053Z,51.325737
2022-08-26T10:41:23.014Z,51.325726
2022-08-26T10:42:23.050Z,51.325775
2022-08-26T10:43:23.037Z,51.325764
2022-08-26T10:44:22.995Z,51.325768
2022-08-26T10:45:22.943Z,51.325706
2022-08-26T10:46:22.967Z,51.325745
2022-08-26T10:47:22.971Z,51.325737
2022-08-26T10:48:22.939Z,51.325745
2022-08-26T10:49:22.884Z,51.325733
2022-08-26T10:50:22.852Z,51.325733
2022-08-26T10:51:22.843Z,51.325760
2022-08-26T10:52:22.869Z,51.325748
2022-08-26T10:53:24.885Z,51.325745
2022-08-26T10:54:22.887Z,51.325722
2022-08-26T10:55:22.782Z,51.325737
2022-08-26T10:56:22.777Z,51.325729
2022-08-26T10:57:22.793Z,51.325748
2022-08-26T10:58:26.061Z,51.325771
2022-08-26T10:59:22.750Z,51.325745
2022-08-26T11:00:22.727Z,51.325737
2022-08-26T11:01:23.280Z,51.325748
2022-08-26T11:02:25.043Z,51.325817
2022-08-26T11:03:23.667Z,51.325760
2022-08-26T11:04:22.881Z,51.325741
2022-08-26T11:05:22.694Z,51.325737
2022-08-26T11:06:22.636Z,51.325745
2022-08-26T11:07:22.656Z,51.325737
2022-08-26T11:08:22.600Z,51.325752
2022-08-26T11:09:22.582Z,51.325741
2022-08-26T11:10:23.592Z,51.325737
2022-08-26T11:11:22.566Z,51.325752
2022-08-26T11:12:22.569Z,51.325760
2022-08-26T11:13:22.525Z,51.325760
2022-08-26T11:14:28.734Z,51.325748
2022-08-26T11:15:24.618Z,51.325756
2022-08-26T11:16:22.570Z,51.325737
2022-08-26T11:17:22.503Z,51.325764
2022-08-26T11:18:22.463Z,51.325741
2022-08-26T11:19:22.434Z,51.325745
2022-08-26T11:20:22.435Z,51.325768
2022-08-26T11:21:22.407Z,51.325756
2022-08-26T11:22:23.441Z,51.325748
2022-08-26T11:23:22.425Z,51.325737
2022-08-26T11:24:22.401Z,51.325741
2022-08-26T11:25:25.391Z,51.325748
2022-08-26T11:26:35.751Z,51.325756